createdAt,value
2023-05-04T00:00:48.569Z,100.00
2023-05-04T00:03:16.934Z,100.00
2023-05-04T00:05:45.264Z,100.00
2023-05-04T00:08:13.714Z,100.00
2023-05-04T00:10:43.298Z,100.00
2023-05-04T00:13:11.883Z,100.00
2023-05-04T00:15:40.168Z,100.00
2023-05-04T00:18:08.617Z,100.00
2023-05-04T00:20:36.925Z,100.00
2023-05-04T00:23:06.069Z,100.00
2023-05-04T00:25:34.518Z,100.00
2023-05-04T00:28:04.176Z,100.00
2023-05-04T00:30:40.836Z,100.00
2023-05-04T00:33:09.213Z,100.00
2023-05-04T00:35:37.774Z,100.00
2023-05-04T00:38:06.025Z,100.00
2023-05-04T00:40:35.196Z,100.00
2023-05-04T00:43:04.838Z,100.00
2023-05-04T00:45:33.541Z,100.00
2023-05-04T00:48:01.999Z,100.00
2023-05-04T00:50:30.542Z,100.00
2023-05-04T00:53:00.292Z,100.00
2023-05-04T00:55:28.584Z,100.00
2023-05-04T00:57:57.236Z,100.00
2023-05-04T01:00:27.290Z,100.00
2023-05-04T01:02:55.670Z,100.00
2023-05-04T01:05:25.017Z,100.00
2023-05-04T01:07:58.073Z,100.00
2023-05-04T01:10:30.447Z,100.00
2023-05-04T01:13:03.103Z,100.00
2023-05-04T01:15:33.304Z,100.00
2023-05-04T01:18:01.939Z,100.00
2023-05-04T01:20:30.515Z,100.00
2023-05-04T01:23:00.353Z,100.00
2023-05-04T01:25:31.556Z,100.00
2023-05-04T01:28:04.122Z,100.00
2023-05-04T01:30:37.484Z,100.00
2023-05-04T01:33:06.083Z,100.00
2023-05-04T01:35:34.668Z,100.00
2023-05-04T01:38:04.754Z,100.00
2023-05-04T01:40:33.309Z,100.00
2023-05-04T01:43:01.633Z,100.00
2023-05-04T01:45:30.008Z,100.00
2023-05-04T01:47:58.336Z,100.00
2023-05-04T01:50:26.790Z,100.00
2023-05-04T01:52:55.133Z,100.00
2023-05-04T01:55:24.729Z,100.00
2023-05-04T01:57:53.020Z,100.00
2023-05-04T02:00:21.718Z,100.00
2023-05-04T02:02:50.167Z,98.16
2023-05-04T02:05:18.532Z,100.00
2023-05-04T02:07:46.802Z,98.18
2023-05-04T02:10:15.153Z,93.32
2023-05-04T02:12:44.813Z,96.31
2023-05-04T02:15:13.158Z,99.10
2023-05-04T02:17:41.595Z,95.86
2023-05-04T02:20:11.219Z,93.33
2023-05-04T02:22:39.583Z,92.35
2023-05-04T02:25:08.809Z,94.49
2023-05-04T02:27:37.076Z,94.66
2023-05-04T02:30:08.143Z,94.44
2023-05-04T02:32:36.641Z,95.89
2023-05-04T02:35:05.199Z,93.54
2023-05-04T02:37:33.538Z,95.07
2023-05-04T02:40:01.937Z,95.91
2023-05-04T02:42:30.201Z,94.02
2023-05-04T02:44:58.451Z,98.10
2023-05-04T02:47:28.062Z,96.64
2023-05-04T02:49:56.368Z,97.56
2023-05-04T02:52:24.614Z,94.49
2023-05-04T02:54:53.331Z,90.24
2023-05-04T02:57:21.750Z,87.16
2023-05-04T02:59:50.016Z,83.48
2023-05-04T03:02:18.296Z,79.53
2023-05-04T03:04:47.870Z,76.73
2023-05-04T03:07:16.136Z,74.68
2023-05-04T03:09:46.772Z,74.64
2023-05-04T03:12:15.823Z,77.82
2023-05-04T03:14:44.129Z,79.43
2023-05-04T03:17:12.398Z,78.87
2023-05-04T03:19:40.757Z,80.60
2023-05-04T03:22:10.359Z,80.86
2023-05-04T03:24:39.779Z,81.80
2023-05-04T03:27:08.026Z,83.00
2023-05-04T03:29:36.447Z,89.50
2023-05-04T03:32:04.850Z,87.37
2023-05-04T03:34:33.155Z,86.00
2023-05-04T03:37:01.392Z,86.62
2023-05-04T03:39:31.224Z,87.10
2023-05-04T03:41:59.473Z,85.94
2023-05-04T03:44:27.719Z,86.19
2023-05-04T03:46:55.986Z,87.12
2023-05-04T03:49:24.246Z,87.69
2023-05-04T03:51:52.541Z,89.97
2023-05-04T03:54:20.812Z,89.21
2023-05-04T03:56:50.461Z,90.34
2023-05-04T03:59:18.719Z,92.89
2023-05-04T04:01:47.056Z,91.52
2023-05-04T04:04:15.301Z,85.11
2023-05-04T04:06:43.665Z,85.80
2023-05-04T04:09:11.967Z,89.91
2023-05-04T04:11:40.245Z,94.74
2023-05-04T04:14:09.952Z,93.83
2023-05-04T04:16:38.341Z,81.32
2023-05-04T04:19:07.945Z,72.02
2023-05-04T04:21:36.190Z,67.03
2023-05-04T04:24:04.714Z,61.28
2023-05-04T04:26:34.090Z,62.16
2023-05-04T04:29:02.334Z,63.15
2023-05-04T04:31:31.964Z,61.92
2023-05-04T04:34:00.854Z,64.33
2023-05-04T04:36:29.523Z,58.47
2023-05-04T04:38:57.832Z,53.47
2023-05-04T04:41:26.068Z,51.26
2023-05-04T04:43:54.337Z,48.62
2023-05-04T04:46:22.567Z,50.07
2023-05-04T04:48:53.508Z,46.76
2023-05-04T04:51:21.930Z,48.20
2023-05-04T04:53:51.318Z,46.51
2023-05-04T04:56:19.919Z,45.07
2023-05-04T04:58:48.612Z,44.87
2023-05-04T05:01:18.090Z,43.27
2023-05-04T05:03:46.961Z,42.41
2023-05-04T05:06:16.668Z,42.61
2023-05-04T05:08:45.387Z,42.36
2023-05-04T05:11:13.668Z,43.56
2023-05-04T05:13:41.937Z,43.99
2023-05-04T05:16:10.299Z,45.10
2023-05-04T05:18:38.588Z,45.48
2023-05-04T05:21:07.712Z,45.90
2023-05-04T05:23:37.346Z,48.77
2023-05-04T05:26:05.654Z,51.49
2023-05-04T05:28:34.005Z,52.68
2023-05-04T05:31:02.420Z,54.64
2023-05-04T05:33:30.729Z,57.10
2023-05-04T05:35:59.005Z,62.87
2023-05-04T05:38:27.459Z,61.91
2023-05-04T05:40:57.109Z,66.13
2023-05-04T05:43:25.371Z,69.29
2023-05-04T05:45:54.148Z,65.88
2023-05-04T05:48:22.435Z,70.66
2023-05-04T05:50:50.780Z,69.17
2023-05-04T05:53:19.044Z,70.19
2023-05-04T05:55:47.475Z,76.00
2023-05-04T05:58:17.098Z,66.54
2023-05-04T06:00:45.381Z,74.02
2023-05-04T06:03:14.421Z,70.76
2023-05-04T06:05:42.834Z,75.94
2023-05-04T06:08:11.117Z,73.62
2023-05-04T06:10:39.597Z,75.32
2023-05-04T06:13:07.933Z,69.58
2023-05-04T06:15:37.633Z,67.13
2023-05-04T06:18:06.026Z,71.04
2023-05-04T06:20:34.390Z,70.17
2023-05-04T06:23:02.793Z,69.03
2023-05-04T06:25:31.307Z,69.14
2023-05-04T06:27:59.616Z,67.36
2023-05-04T06:30:27.949Z,65.23
2023-05-04T06:32:57.631Z,61.26
2023-05-04T06:35:26.183Z,65.29
2023-05-04T06:37:54.467Z,63.08
2023-05-04T06:40:22.712Z,65.48
2023-05-04T06:42:51.147Z,70.72
2023-05-04T06:45:19.474Z,68.59
2023-05-04T06:47:47.801Z,64.66
2023-05-04T06:50:17.618Z,69.39
2023-05-04T06:52:46.451Z,65.52
2023-05-04T06:55:14.982Z,68.84
2023-05-04T06:57:43.226Z,68.64
2023-05-04T07:00:12.624Z,65.48
2023-05-04T07:02:40.986Z,59.27
2023-05-04T07:05:09.817Z,61.06
2023-05-04T07:07:39.609Z,62.32
2023-05-04T07:10:08.650Z,57.31
2023-05-04T07:12:37.652Z,58.90
2023-05-04T07:15:07.542Z,61.15
2023-05-04T07:17:36.752Z,60.71
2023-05-04T07:20:06.576Z,60.10
2023-05-04T07:22:35.304Z,60.33
2023-05-04T07:25:05.585Z,63.87
2023-05-04T07:27:35.045Z,60.76
2023-05-04T07:30:04.386Z,64.76
2023-05-04T07:32:32.856Z,63.09
2023-05-04T07:35:01.114Z,63.28
2023-05-04T07:37:29.427Z,61.17
2023-05-04T07:39:57.677Z,58.50
2023-05-04T07:42:28.025Z,57.37
2023-05-04T07:44:56.380Z,57.41
2023-05-04T07:47:24.808Z,58.46
2023-05-04T07:49:53.038Z,56.64
2023-05-04T07:52:21.264Z,56.14
2023-05-04T07:54:53.222Z,52.79
2023-05-04T07:57:21.877Z,55.04
2023-05-04T07:59:55.049Z,53.61
2023-05-04T08:02:23.773Z,51.71
2023-05-04T08:04:52.139Z,51.60
2023-05-04T08:07:22.516Z,53.05
2023-05-04T08:09:52.322Z,50.44
2023-05-04T08:12:20.636Z,51.07
2023-05-04T08:14:49.146Z,51.18
2023-05-04T08:17:18.809Z,49.60
2023-05-04T08:19:47.231Z,49.50
2023-05-04T08:22:15.469Z,50.28
2023-05-04T08:24:43.710Z,50.20
2023-05-04T08:27:13.824Z,49.54
2023-05-04T08:29:42.099Z,49.83
2023-05-04T08:32:10.436Z,50.69
2023-05-04T08:34:40.043Z,49.76
2023-05-04T08:37:08.309Z,50.22
2023-05-04T08:39:39.377Z,48.81
2023-05-04T08:42:08.872Z,47.67
2023-05-04T08:44:37.108Z,47.53
2023-05-04T08:47:05.854Z,46.66
2023-05-04T08:49:34.134Z,46.62
2023-05-04T08:52:09.413Z,46.56
2023-05-04T08:54:39.742Z,46.74
2023-05-04T08:57:08.246Z,46.86
2023-05-04T08:59:37.473Z,46.89
2023-05-04T09:02:06.094Z,45.95
2023-05-04T09:04:34.441Z,46.67
2023-05-04T09:07:04.046Z,47.22
2023-05-04T09:09:32.560Z,46.48
2023-05-04T09:12:00.791Z,45.71
2023-05-04T09:14:33.599Z,44.43
2023-05-04T09:17:02.152Z,44.14
2023-05-04T09:19:34.653Z,45.28
2023-05-04T09:22:15.609Z,44.77
2023-05-04T09:24:44.196Z,44.02
2023-05-04T09:27:13.365Z,44.71
2023-05-04T09:29:42.537Z,44.93
2023-05-04T09:32:15.403Z,44.92
2023-05-04T09:34:50.652Z,44.81
2023-05-04T09:37:22.222Z,43.53
2023-05-04T09:39:55.139Z,41.71
2023-05-04T09:42:24.073Z,42.89
2023-05-04T09:45:06.374Z,43.97
2023-05-04T09:47:38.411Z,42.42
2023-05-04T09:50:19.819Z,42.48
2023-05-04T09:52:51.344Z,43.09
2023-05-04T09:55:19.829Z,42.50
2023-05-04T09:57:49.203Z,41.92
2023-05-04T10:00:18.732Z,41.92
2023-05-04T10:02:48.101Z,42.54
2023-05-04T10:05:18.137Z,40.62
2023-05-04T10:07:47.123Z,40.63
2023-05-04T10:10:16.894Z,39.93
2023-05-04T10:12:45.969Z,40.41
2023-05-04T10:15:15.966Z,40.95
2023-05-04T10:18:08.858Z,40.74
2023-05-04T10:21:02.875Z,41.12
2023-05-04T10:24:05.681Z,41.13
2023-05-04T10:26:43.206Z,41.91
2023-05-04T10:31:47.289Z,40.21
2023-05-04T10:34:25.900Z,40.07
2023-05-04T10:36:54.188Z,40.11
2023-05-04T10:39:24.479Z,39.16
2023-05-04T10:42:04.792Z,37.95
2023-05-04T10:44:34.425Z,39.23
2023-05-04T10:47:05.301Z,37.42
2023-05-04T10:49:34.010Z,37.37
2023-05-04T10:52:09.410Z,38.38
2023-05-04T10:54:38.160Z,38.71
2023-05-04T10:57:09.068Z,38.18
2023-05-04T10:59:37.824Z,38.01
2023-05-04T11:02:07.559Z,37.50
2023-05-04T11:04:36.585Z,37.27
2023-05-04T11:07:06.886Z,37.97
2023-05-04T11:09:39.451Z,38.33
2023-05-04T11:12:11.467Z,36.42
2023-05-04T11:14:43.359Z,37.11
2023-05-04T11:19:50.917Z,37.64
2023-05-04T11:22:19.464Z,36.99
2023-05-04T11:24:49.155Z,36.17
2023-05-04T11:27:26.209Z,36.00
2023-05-04T11:29:58.318Z,37.00
2023-05-04T11:32:36.825Z,36.10
2023-05-04T11:35:06.639Z,35.72
2023-05-04T11:37:40.296Z,35.80
2023-05-04T11:40:13.285Z,35.03
2023-05-04T11:42:43.572Z,36.10
2023-05-04T11:45:15.587Z,34.50
2023-05-04T11:47:44.846Z,34.47
2023-05-04T11:50:14.505Z,33.84
2023-05-04T11:52:43.476Z,33.80
2023-05-04T11:55:12.702Z,33.96
2023-05-04T11:57:41.016Z,33.86
2023-05-04T12:00:12.351Z,36.42
2023-05-04T12:02:40.860Z,36.03
2023-05-04T12:05:13.837Z,37.01
2023-05-04T12:07:42.364Z,35.40
2023-05-04T12:10:11.094Z,35.44
2023-05-04T12:12:39.349Z,34.88
2023-05-04T12:15:08.972Z,35.38
2023-05-04T12:17:45.198Z,37.51
2023-05-04T12:20:23.829Z,34.74
2023-05-04T12:22:52.142Z,36.33
2023-05-04T12:25:20.716Z,35.92
2023-05-04T12:27:49.167Z,37.02
2023-05-04T12:30:18.448Z,36.03
2023-05-04T12:32:49.112Z,34.83
2023-05-04T12:35:17.352Z,33.96
2023-05-04T12:37:45.750Z,32.92
2023-05-04T12:40:27.842Z,32.94
2023-05-04T12:42:56.793Z,32.71
2023-05-04T12:45:25.084Z,34.44
2023-05-04T12:47:54.793Z,33.44
2023-05-04T12:50:23.263Z,31.93
2023-05-04T12:52:51.542Z,33.79
2023-05-04T12:55:19.828Z,32.87
2023-05-04T12:57:48.143Z,31.65
2023-05-04T13:00:16.856Z,31.60
2023-05-04T13:02:45.237Z,31.70
2023-05-04T13:05:15.998Z,31.05
2023-05-04T13:07:44.314Z,31.50
2023-05-04T13:10:12.623Z,32.02
2023-05-04T13:12:40.950Z,29.16
2023-05-04T13:15:10.724Z,30.36
2023-05-04T13:17:39.210Z,30.86
2023-05-04T13:20:08.940Z,31.40
2023-05-04T13:22:38.769Z,30.64
2023-05-04T13:25:08.606Z,30.38
2023-05-04T13:27:37.471Z,30.06
2023-05-04T13:30:07.495Z,29.25
2023-05-04T13:32:36.290Z,29.66
2023-05-04T13:35:05.370Z,29.99
2023-05-04T13:37:33.946Z,29.92
2023-05-04T13:40:03.747Z,29.29
2023-05-04T13:42:33.941Z,29.42
2023-05-04T13:45:03.583Z,29.69
2023-05-04T13:47:32.472Z,29.18
2023-05-04T13:50:02.123Z,28.76
2023-05-04T13:52:31.743Z,29.98
2023-05-04T13:55:00.163Z,29.21
2023-05-04T13:57:29.849Z,29.21
2023-05-04T14:00:07.264Z,27.30
2023-05-04T14:02:36.657Z,27.76
2023-05-04T14:05:05.940Z,27.91
2023-05-04T14:07:35.327Z,28.18
2023-05-04T14:10:03.831Z,26.87
2023-05-04T14:12:33.577Z,27.36
2023-05-04T14:15:01.891Z,27.28
2023-05-04T14:17:30.152Z,26.56
2023-05-04T14:19:58.996Z,27.61
2023-05-04T14:22:27.278Z,27.35
2023-05-04T14:24:55.678Z,27.19
2023-05-04T14:27:23.989Z,26.47
2023-05-04T14:29:54.449Z,26.01
2023-05-04T14:32:22.691Z,26.55
2023-05-04T14:34:51.098Z,27.63
2023-05-04T14:37:19.326Z,26.83
2023-05-04T14:39:47.595Z,26.57
2023-05-04T14:42:15.836Z,26.77
2023-05-04T14:44:44.108Z,26.15
2023-05-04T14:47:13.692Z,26.09
2023-05-04T14:49:42.928Z,25.82
2023-05-04T14:52:11.576Z,27.03
2023-05-04T14:54:39.780Z,27.02
2023-05-04T14:57:09.169Z,26.45
2023-05-04T14:59:38.626Z,27.76
2023-05-04T15:02:08.058Z,27.04
2023-05-04T15:04:37.717Z,25.91
2023-05-04T15:07:06.032Z,25.59
2023-05-04T15:09:34.398Z,25.72
2023-05-04T15:12:03.603Z,25.32
2023-05-04T15:14:31.915Z,24.83
2023-05-04T15:17:00.156Z,26.22
2023-05-04T15:19:28.446Z,26.31
2023-05-04T15:21:58.017Z,25.56
2023-05-04T15:24:26.251Z,26.68
2023-05-04T15:26:54.577Z,26.13
2023-05-04T15:29:22.902Z,26.42
2023-05-04T15:31:53.383Z,26.32
2023-05-04T15:34:21.741Z,26.55
2023-05-04T15:36:49.977Z,25.71
2023-05-04T15:39:19.633Z,26.66
2023-05-04T15:41:47.863Z,27.10
2023-05-04T15:44:16.202Z,27.99
2023-05-04T15:46:46.534Z,27.13
2023-05-04T15:49:14.677Z,26.79
2023-05-04T15:51:42.938Z,26.81
2023-05-04T15:54:11.330Z,27.59
2023-05-04T15:56:41.100Z,27.50
2023-05-04T15:59:09.354Z,26.49
2023-05-04T16:01:39.954Z,26.79
2023-05-04T16:04:08.365Z,26.83
2023-05-04T16:06:36.744Z,27.15
2023-05-04T16:09:05.140Z,26.71
2023-05-04T16:11:33.647Z,27.64
2023-05-04T16:14:03.283Z,27.42
2023-05-04T16:16:31.585Z,27.68
2023-05-04T16:18:59.923Z,27.26
2023-05-04T16:21:28.164Z,27.78
2023-05-04T16:23:56.425Z,28.22
2023-05-04T16:26:24.770Z,27.96
2023-05-04T16:28:53.075Z,28.21
2023-05-04T16:31:22.779Z,28.52
2023-05-04T16:33:51.083Z,27.96
2023-05-04T16:36:19.326Z,28.17
2023-05-04T16:38:48.981Z,28.54
2023-05-04T16:41:19.078Z,28.10
2023-05-04T16:43:48.968Z,27.90
2023-05-04T16:46:17.495Z,28.51
2023-05-04T16:48:47.139Z,27.90
2023-05-04T16:51:15.395Z,29.13
2023-05-04T16:53:43.665Z,28.86
2023-05-04T16:56:18.097Z,28.78
2023-05-04T16:58:46.513Z,28.74
2023-05-04T17:01:14.786Z,29.38
2023-05-04T17:03:43.071Z,29.79
2023-05-04T17:06:13.249Z,29.72
2023-05-04T17:08:41.529Z,29.29
2023-05-04T17:11:09.798Z,29.24
2023-05-04T17:13:38.188Z,29.37
2023-05-04T17:16:07.283Z,29.50
2023-05-04T17:18:35.580Z,29.51
2023-05-04T17:21:03.817Z,29.37
2023-05-04T17:23:33.676Z,30.00
2023-05-04T17:26:01.960Z,29.43
2023-05-04T17:28:30.362Z,29.37
2023-05-04T17:30:58.636Z,30.47
2023-05-04T17:33:26.913Z,30.28
2023-05-04T17:35:55.198Z,30.04
2023-05-04T17:38:23.468Z,30.99
2023-05-04T17:40:53.082Z,30.08
2023-05-04T17:43:21.453Z,29.16
2023-05-04T17:45:49.677Z,29.78
2023-05-04T17:48:18.044Z,30.46
2023-05-04T17:50:46.568Z,30.99
2023-05-04T17:53:14.789Z,31.02
2023-05-04T17:55:43.204Z,31.35
2023-05-04T17:58:12.802Z,31.09
2023-05-04T18:00:41.352Z,31.76
2023-05-04T18:03:09.833Z,32.34
2023-05-04T18:05:38.228Z,32.51
2023-05-04T18:08:06.713Z,32.81
2023-05-04T18:10:35.989Z,33.85
2023-05-04T18:13:04.266Z,33.41
2023-05-04T18:15:33.938Z,33.40
2023-05-04T18:18:02.538Z,33.86
2023-05-04T18:20:30.841Z,33.92
2023-05-04T18:22:59.100Z,34.91
2023-05-04T18:25:27.497Z,34.58
2023-05-04T18:27:56.083Z,34.25
2023-05-04T18:30:24.378Z,34.28
2023-05-04T18:32:54.008Z,34.54
2023-05-04T18:35:22.499Z,34.73
2023-05-04T18:37:50.905Z,34.39
2023-05-04T18:40:19.285Z,35.08
2023-05-04T18:42:47.508Z,35.15
2023-05-04T18:45:15.804Z,35.24
2023-05-04T18:47:44.096Z,35.55
2023-05-04T18:50:13.964Z,35.39
2023-05-04T18:52:42.194Z,35.25
2023-05-04T18:55:11.027Z,35.39
2023-05-04T18:57:39.274Z,35.25
2023-05-04T19:00:09.489Z,35.30
2023-05-04T19:02:38.143Z,35.71
2023-05-04T19:05:06.872Z,35.82
2023-05-04T19:07:37.004Z,35.74
2023-05-04T19:10:06.632Z,35.81
2023-05-04T19:12:35.068Z,35.99
2023-05-04T19:15:03.293Z,36.10
2023-05-04T19:17:31.751Z,36.02
2023-05-04T19:20:00.092Z,36.82
2023-05-04T19:22:28.395Z,36.54
2023-05-04T19:24:58.057Z,35.94
2023-05-04T19:27:26.367Z,36.31
2023-05-04T19:29:56.102Z,36.06
2023-05-04T19:32:25.166Z,35.96
2023-05-04T19:34:53.800Z,36.55
2023-05-04T19:37:22.190Z,36.60
2023-05-04T19:39:50.481Z,36.74
2023-05-04T19:42:20.133Z,36.64
2023-05-04T19:44:48.384Z,36.93
2023-05-04T19:47:16.918Z,36.65
2023-05-04T19:49:47.461Z,36.12
2023-05-04T19:52:15.546Z,35.60
2023-05-04T19:54:45.037Z,35.49
2023-05-04T19:57:13.273Z,36.08
2023-05-04T19:59:44.743Z,36.78
2023-05-04T20:02:14.614Z,37.08
2023-05-04T20:04:42.960Z,37.22
2023-05-04T20:07:11.210Z,36.85
2023-05-04T20:09:39.518Z,37.77
2023-05-04T20:12:08.192Z,39.66
2023-05-04T20:14:36.793Z,38.61
2023-05-04T20:17:06.778Z,38.42
2023-05-04T20:19:35.043Z,37.96
2023-05-04T20:22:03.369Z,39.13
2023-05-04T20:24:31.605Z,38.60
2023-05-04T20:26:59.858Z,39.92
2023-05-04T20:29:28.162Z,41.08
2023-05-04T20:31:56.420Z,42.33
2023-05-04T20:34:26.096Z,42.91
2023-05-04T20:36:54.496Z,43.68
2023-05-04T20:39:22.761Z,43.05
2023-05-04T20:41:51.113Z,42.53
2023-05-04T20:44:19.421Z,42.86
2023-05-04T20:46:47.750Z,42.87
2023-05-04T20:49:15.982Z,42.71
2023-05-04T20:51:46.121Z,42.67
2023-05-04T20:54:14.354Z,42.81
2023-05-04T20:56:42.585Z,42.25
2023-05-04T20:59:10.946Z,42.41
2023-05-04T21:01:39.213Z,42.83
2023-05-04T21:04:07.812Z,42.30
2023-05-04T21:06:36.047Z,43.90
2023-05-04T21:09:05.798Z,43.91
2023-05-04T21:11:34.529Z,45.13
2023-05-04T21:14:03.261Z,43.87
2023-05-04T21:16:31.776Z,44.03
2023-05-04T21:19:00.152Z,44.08
2023-05-04T21:21:28.507Z,46.11
2023-05-04T21:23:56.813Z,49.69
2023-05-04T21:26:26.767Z,48.38
2023-05-04T21:28:55.168Z,48.09
2023-05-04T21:31:23.473Z,45.68
2023-05-04T21:33:52.245Z,44.89
2023-05-04T21:36:21.045Z,43.55
2023-05-04T21:38:49.455Z,47.92
2023-05-04T21:41:18.000Z,47.88
2023-05-04T21:43:47.639Z,44.06
2023-05-04T21:46:16.054Z,43.21
2023-05-04T21:48:44.538Z,45.66
2023-05-04T21:51:12.996Z,47.59
2023-05-04T21:53:44.097Z,48.33
2023-05-04T21:56:12.807Z,48.08
2023-05-04T21:58:41.175Z,50.67
2023-05-04T22:01:12.323Z,51.33
2023-05-04T22:03:41.010Z,52.55
2023-05-04T22:06:09.485Z,52.72
2023-05-04T22:08:37.907Z,50.79
2023-05-04T22:11:06.387Z,50.68
2023-05-04T22:13:34.705Z,50.33
2023-05-04T22:16:03.083Z,50.07
2023-05-04T22:18:32.744Z,48.93
2023-05-04T22:21:01.300Z,48.25
2023-05-04T22:23:29.671Z,48.83
2023-05-04T22:25:58.002Z,50.53
2023-05-04T22:28:26.415Z,50.45
2023-05-04T22:30:54.782Z,50.45
2023-05-04T22:33:23.166Z,50.27
2023-05-04T22:35:52.810Z,50.11
2023-05-04T22:38:21.093Z,50.92
2023-05-04T22:40:50.123Z,52.13
2023-05-04T22:43:18.397Z,52.97
2023-05-04T22:45:46.717Z,53.93
2023-05-04T22:48:15.126Z,53.72
2023-05-04T22:50:43.560Z,52.87
2023-05-04T22:53:14.545Z,51.93
2023-05-04T22:55:42.895Z,52.55
2023-05-04T22:58:11.303Z,54.76
2023-05-04T23:00:39.635Z,53.78
2023-05-04T23:03:08.077Z,54.13
2023-05-04T23:05:36.583Z,54.55
2023-05-04T23:08:05.164Z,55.84
2023-05-04T23:10:35.683Z,56.80
2023-05-04T23:13:03.982Z,57.92
2023-05-04T23:15:32.786Z,58.08
2023-05-04T23:18:01.301Z,57.76
2023-05-04T23:20:29.816Z,58.11
2023-05-04T23:22:58.202Z,62.03
2023-05-04T23:25:26.710Z,61.90
2023-05-04T23:27:56.386Z,60.66
2023-05-04T23:30:24.715Z,60.43
2023-05-04T23:32:53.050Z,58.48
2023-05-04T23:35:21.530Z,63.28
2023-05-04T23:37:49.864Z,64.90
2023-05-04T23:40:18.385Z,61.59
2023-05-04T23:42:49.856Z,62.42
2023-05-04T23:45:19.578Z,61.83
2023-05-04T23:47:47.844Z,61.92
2023-05-04T23:50:16.570Z,62.78
2023-05-04T23:52:44.899Z,61.63
2023-05-04T23:55:13.675Z,61.75
2023-05-04T23:57:44.301Z,61.84
